Time;durP1;ratioP1;P1;durP2;ratioP2;P2;SDS_P1;SDS_P2;PMS_P1;PMS_P2;Temp;Humidity;BMP_temperature;BMP_pressure;BME280_temperature;BME280_humidity;BME280_pressure;Samples;Min_cycle;Max_cycle;Signal;HPM_P1;HPM_P2
2021/12/09 00:01:20;;;;;;;9.43;5.78;;;;;;;;;;1905042;74;21016;-41
2021/12/09 00:03:46;;;;;;;9.78;6.05;;;;;;;;;;1904616;74;21047;-42
2021/12/09 00:06:20;;;;;;;9.73;6.10;;;;;;;;;;1905119;75;21028;-41
2021/12/09 00:08:46;;;;;;;11.30;5.80;;;;;;;;;;1904914;74;21505;-42
2021/12/09 00:11:14;;;;;;;8.28;5.62;;;;;;;;;;1905195;75;21083;-41
2021/12/09 00:13:43;;;;;;;16.50;5.87;;;;;;;;;;1905136;75;21093;-42
2021/12/09 00:16:12;;;;;;;7.15;5.50;;;;;;;;;;1905207;75;21125;-42
2021/12/09 00:18:41;;;;;;;7.55;5.25;;;;;;;;;;1905119;75;21035;-42
2021/12/09 00:21:11;;;;;;;10.72;5.28;;;;;;;;;;1905117;75;21008;-42
2021/12/09 00:23:39;;;;;;;7.70;5.97;;;;;;;;;;1905216;74;21148;-42
2021/12/09 00:26:08;;;;;;;9.08;5.65;;;;;;;;;;1905167;75;21031;-42
2021/12/09 00:28:37;;;;;;;12.47;6.62;;;;;;;;;;1905144;75;20991;-42
2021/12/09 00:31:06;;;;;;;7.45;6.20;;;;;;;;;;1905239;75;21019;-42
2021/12/09 00:33:41;;;;;;;8.15;5.67;;;;;;;;;;1905108;75;21077;-42
2021/12/09 00:36:05;;;;;;;8.90;5.37;;;;;;;;;;1904890;74;21519;-42
2021/12/09 00:38:35;;;;;;;8.15;5.67;;;;;;;;;;1905200;75;21067;-41
2021/12/09 00:41:08;;;;;;;6.53;5.05;;;;;;;;;;1905169;75;21567;-42
2021/12/09 00:43:37;;;;;;;7.35;5.53;;;;;;;;;;1905301;74;21482;-42
2021/12/09 00:46:06;;;;;;;8.98;5.62;;;;;;;;;;1905225;75;21036;-42
2021/12/09 00:48:35;;;;;;;7.33;5.17;;;;;;;;;;1905132;75;21122;-42
2021/12/09 00:51:05;;;;;;;6.75;5.75;;;;;;;;;;1905301;75;21081;-41
2021/12/09 00:53:34;;;;;;;7.42;5.15;;;;;;;;;;1905165;75;21008;-42
2021/12/09 00:56:04;;;;;;;7.10;5.03;;;;;;;;;;1905242;74;21031;-42
2021/12/09 00:58:33;;;;;;;9.28;5.58;;;;;;;;;;1905341;75;21520;-42
2021/12/09 01:01:01;;;;;;;8.80;5.55;;;;;;;;;;1905181;74;21043;-43
2021/12/09 01:03:30;;;;;;;9.48;5.55;;;;;;;;;;1905221;74;21039;-43
2021/12/09 01:05:59;;;;;;;13.85;6.37;;;;;;;;;;1905316;75;21035;-42
2021/12/09 01:08:28;;;;;;;8.13;6.35;;;;;;;;;;1905199;75;21027;-42
2021/12/09 01:10:57;;;;;;;10.80;6.95;;;;;;;;;;1905242;74;21015;-42
2021/12/09 01:13:26;;;;;;;14.58;7.25;;;;;;;;;;1905266;75;20991;-43
2021/12/09 01:15:55;;;;;;;12.58;6.78;;;;;;;;;;1905236;75;21028;-42
2021/12/09 01:18:24;;;;;;;12.15;7.62;;;;;;;;;;1905262;75;21023;-42
2021/12/09 01:20:52;;;;;;;13.28;7.85;;;;;;;;;;1905339;75;21125;-43
2021/12/09 01:23:21;;;;;;;12.60;6.75;;;;;;;;;;1917827;74;21127;-42
2021/12/09 01:25:58;;;;;;;11.65;6.92;;;;;;;;;;1924633;74;21098;-43
2021/12/09 01:28:25;;;;;;;9.55;6.10;;;;;;;;;;1923827;74;21492;-43
2021/12/09 01:30:51;;;;;;;10.38;6.10;;;;;;;;;;1924172;74;21031;-42
2021/12/09 01:33:22;;;;;;;9.00;5.40;;;;;;;;;;1924561;74;21014;-42
2021/12/09 01:35:50;;;;;;;9.33;5.60;;;;;;;;;;1924673;74;21472;-43
2021/12/09 01:38:19;;;;;;;9.23;5.78;;;;;;;;;;1924629;74;20990;-42
2021/12/09 01:40:47;;;;;;;11.57;5.80;;;;;;;;;;1924559;74;21031;-43
2021/12/09 01:43:17;;;;;;;10.40;6.35;;;;;;;;;;1924603;74;21051;-43
2021/12/09 01:45:45;;;;;;;7.47;5.47;;;;;;;;;;1924569;74;21084;-43
2021/12/09 01:48:15;;;;;;;10.13;6.53;;;;;;;;;;1924499;74;21088;-42
2021/12/09 01:50:43;;;;;;;10.38;6.35;;;;;;;;;;1924815;74;21065;-42
2021/12/09 01:53:12;;;;;;;12.05;5.72;;;;;;;;;;1924572;74;21066;-43
2021/12/09 01:55:41;;;;;;;10.88;5.83;;;;;;;;;;1924731;74;21042;-42
2021/12/09 01:58:11;;;;;;;11.38;6.60;;;;;;;;;;1924553;74;21039;-43
2021/12/09 02:00:39;;;;;;;11.20;6.20;;;;;;;;;;1924583;74;21018;-43
2021/12/09 02:03:08;;;;;;;9.93;5.65;;;;;;;;;;1924659;74;21015;-42
2021/12/09 02:05:40;;;;;;;13.13;6.05;;;;;;;;;;1924703;74;21022;-42
2021/12/09 02:08:07;;;;;;;12.00;6.45;;;;;;;;;;1924457;74;21493;-43
2021/12/09 02:10:36;;;;;;;9.08;5.80;;;;;;;;;;1924707;74;21019;-43
2021/12/09 02:13:05;;;;;;;10.35;5.90;;;;;;;;;;1924542;74;21038;-42
2021/12/09 02:15:35;;;;;;;8.15;6.12;;;;;;;;;;1924626;74;21046;-42
2021/12/09 02:18:05;;;;;;;10.40;5.75;;;;;;;;;;1924504;74;21023;-42
2021/12/09 02:20:35;;;;;;;8.88;5.65;;;;;;;;;;1923587;74;21092;-43
2021/12/09 02:23:08;;;;;;;8.45;6.05;;;;;;;;;;1924459;74;21050;-42
2021/12/09 02:25:35;;;;;;;14.93;5.80;;;;;;;;;;1924401;74;21512;-43
2021/12/09 02:28:04;;;;;;;13.90;6.05;;;;;;;;;;1924528;74;21030;-43
2021/12/09 02:30:33;;;;;;;8.45;5.08;;;;;;;;;;1924531;74;21054;-42
2021/12/09 02:33:02;;;;;;;17.77;6.35;;;;;;;;;;1924578;74;21092;-42
2021/12/09 02:35:31;;;;;;;10.98;5.50;;;;;;;;;;1924611;74;21006;-42
2021/12/09 02:37:59;;;;;;;11.10;6.03;;;;;;;;;;1924638;74;21018;-43
2021/12/09 02:40:28;;;;;;;9.68;5.62;;;;;;;;;;1924539;74;21030;-43
2021/12/09 02:42:57;;;;;;;8.83;6.65;;;;;;;;;;1924556;74;20983;-42
2021/12/09 02:45:25;;;;;;;10.20;5.85;;;;;;;;;;1924605;74;21019;-43
2021/12/09 02:47:54;;;;;;;7.35;5.70;;;;;;;;;;1924547;74;21104;-43
2021/12/09 02:50:23;;;;;;;10.88;5.50;;;;;;;;;;1924659;74;21070;-42
2021/12/09 02:52:52;;;;;;;11.00;6.45;;;;;;;;;;1924562;74;21104;-42
2021/12/09 02:55:21;;;;;;;10.32;5.92;;;;;;;;;;1924721;74;21034;-42
2021/12/09 02:57:51;;;;;;;14.47;6.37;;;;;;;;;;1924668;74;21026;-42
2021/12/09 03:00:20;;;;;;;9.08;5.87;;;;;;;;;;1923692;74;21026;-42
2021/12/09 03:02:49;;;;;;;6.72;5.35;;;;;;;;;;1924673;74;21076;-42
2021/12/09 03:05:18;;;;;;;8.00;5.97;;;;;;;;;;1924694;74;20998;-44
2021/12/09 03:07:47;;;;;;;11.75;5.90;;;;;;;;;;1924537;74;21078;-42
2021/12/09 03:10:20;;;;;;;11.55;6.58;;;;;;;;;;1924591;74;21011;-42
2021/12/09 03:12:48;;;;;;;8.55;5.35;;;;;;;;;;1924531;74;21022;-42
2021/12/09 03:15:17;;;;;;;10.75;6.78;;;;;;;;;;1923829;74;21023;-43
2021/12/09 03:17:47;;;;;;;12.88;7.80;;;;;;;;;;1924659;74;21187;-42
2021/12/09 03:20:17;;;;;;;10.60;7.72;;;;;;;;;;1924538;74;21516;-43
2021/12/09 03:22:46;;;;;;;13.20;6.85;;;;;;;;;;1924442;74;21027;-42
2021/12/09 03:25:16;;;;;;;11.38;7.80;;;;;;;;;;1924589;74;21088;-43
2021/12/09 03:27:44;;;;;;;9.05;6.50;;;;;;;;;;1924491;74;21007;-42
2021/12/09 03:30:15;;;;;;;10.28;5.92;;;;;;;;;;1924706;74;21066;-43
2021/12/09 03:32:43;;;;;;;16.57;7.20;;;;;;;;;;1924572;74;21516;-42
2021/12/09 03:35:13;;;;;;;14.18;6.67;;;;;;;;;;1924527;74;21034;-42
2021/12/09 03:37:42;;;;;;;11.65;5.92;;;;;;;;;;1924534;74;21136;-44
2021/12/09 03:40:11;;;;;;;11.08;5.70;;;;;;;;;;1924506;74;21038;-42
2021/12/09 03:42:40;;;;;;;10.48;6.20;;;;;;;;;;1924640;74;21022;-42
2021/12/09 03:45:09;;;;;;;13.93;6.42;;;;;;;;;;1924518;74;21035;-42
2021/12/09 03:47:38;;;;;;;15.68;7.53;;;;;;;;;;1924623;74;21022;-43
2021/12/09 03:50:08;;;;;;;5.95;5.33;;;;;;;;;;1924489;74;21022;-43
2021/12/09 03:52:38;;;;;;;8.15;5.75;;;;;;;;;;1924515;74;21039;-42
2021/12/09 03:55:07;;;;;;;12.30;6.50;;;;;;;;;;1923738;74;21022;-43
2021/12/09 03:57:35;;;;;;;11.68;6.37;;;;;;;;;;1924601;74;21026;-42
2021/12/09 04:00:06;;;;;;;14.75;7.47;;;;;;;;;;1924652;74;21096;-42
2021/12/09 04:02:34;;;;;;;10.13;6.45;;;;;;;;;;1924516;74;21534;-42
2021/12/09 04:05:02;;;;;;;7.03;5.28;;;;;;;;;;1924684;74;21096;-43
2021/12/09 04:07:31;;;;;;;8.33;5.33;;;;;;;;;;1924556;74;21100;-43
2021/12/09 04:10:00;;;;;;;10.63;4.45;;;;;;;;;;1924509;74;21101;-42
2021/12/09 04:12:29;;;;;;;9.20;4.58;;;;;;;;;;1924603;74;21031;-43
2021/12/09 04:14:57;;;;;;;12.53;6.12;;;;;;;;;;1924656;74;21030;-42
2021/12/09 04:17:26;;;;;;;9.20;5.15;;;;;;;;;;1924604;74;21089;-42
2021/12/09 04:19:55;;;;;;;7.08;4.53;;;;;;;;;;1924519;74;21025;-43
2021/12/09 04:22:24;;;;;;;7.12;4.15;;;;;;;;;;1924488;74;21137;-43
2021/12/09 04:24:54;;;;;;;7.17;4.08;;;;;;;;;;1924396;74;21175;-42
2021/12/09 04:27:23;;;;;;;19.25;5.70;;;;;;;;;;1924513;74;21120;-42
2021/12/09 04:29:51;;;;;;;13.93;5.75;;;;;;;;;;1924487;74;21018;-42
2021/12/09 04:32:20;;;;;;;11.60;6.05;;;;;;;;;;1924672;74;21022;-43
2021/12/09 04:34:53;;;;;;;11.88;5.00;;;;;;;;;;1924456;74;21019;-42
2021/12/09 04:37:19;;;;;;;7.15;4.00;;;;;;;;;;1924352;74;21461;-43
2021/12/09 04:39:48;;;;;;;6.55;3.95;;;;;;;;;;1924531;74;21038;-43
2021/12/09 04:42:17;;;;;;;8.18;4.67;;;;;;;;;;1924527;74;21017;-44
2021/12/09 04:44:45;;;;;;;13.98;4.33;;;;;;;;;;1924527;74;21022;-44
2021/12/09 04:47:14;;;;;;;6.40;4.10;;;;;;;;;;1924460;74;21090;-43
2021/12/09 04:49:43;;;;;;;18.82;9.28;;;;;;;;;;1924480;74;21074;-42
2021/12/09 04:52:11;;;;;;;10.95;5.40;;;;;;;;;;1924602;74;21035;-43
2021/12/09 04:54:44;;;;;;;11.20;4.75;;;;;;;;;;1924646;74;21006;-43
2021/12/09 04:57:13;;;;;;;6.90;3.62;;;;;;;;;;1924651;74;21094;-43
2021/12/09 04:59:42;;;;;;;8.53;4.72;;;;;;;;;;1924542;74;21022;-43
2021/12/09 05:02:21;;;;;;;7.83;4.58;;;;;;;;;;1924551;74;21014;-43
2021/12/09 05:04:41;;;;;;;15.25;6.55;;;;;;;;;;1923303;74;21073;-43
2021/12/09 05:07:10;;;;;;;11.83;4.83;;;;;;;;;;1924576;74;21098;-44
2021/12/09 05:09:41;;;;;;;17.82;5.90;;;;;;;;;;1924717;74;20995;-43
2021/12/09 05:12:09;;;;;;;8.48;4.25;;;;;;;;;;1924654;74;21492;-43
2021/12/09 05:14:38;;;;;;;10.32;4.20;;;;;;;;;;1924726;74;21092;-42
2021/12/09 05:17:07;;;;;;;8.93;4.50;;;;;;;;;;1924780;74;21096;-43
2021/12/09 05:19:36;;;;;;;12.88;4.90;;;;;;;;;;1924707;74;21031;-43
2021/12/09 05:22:05;;;;;;;13.18;5.83;;;;;;;;;;1924435;74;21030;-42
2021/12/09 05:24:38;;;;;;;11.00;5.95;;;;;;;;;;1924113;74;21187;-42
2021/12/09 05:27:22;;;;;;;11.28;5.12;;;;;;;;;;1923336;74;21065;-41
2021/12/09 05:30:04;;;;;;;;;;;;;;;;;;1925061;74;21137;-43
2021/12/09 05:32:24;;;;;;;15.75;7.17;;;;;;;;;;1922173;74;20499;-43
2021/12/09 05:34:53;;;;;;;14.73;5.17;;;;;;;;;;1923515;74;21082;-43
2021/12/09 05:37:23;;;;;;;13.32;7.10;;;;;;;;;;1923384;74;21031;-43
2021/12/09 05:39:52;;;;;;;31.62;9.70;;;;;;;;;;1924566;74;21037;-43
2021/12/09 05:42:22;;;;;;;31.68;9.63;;;;;;;;;;1924784;74;21022;-43
2021/12/09 05:44:51;;;;;;;20.48;7.85;;;;;;;;;;1924672;74;21089;-43
2021/12/09 05:47:20;;;;;;;18.85;7.45;;;;;;;;;;1924671;74;21084;-44
2021/12/09 05:49:49;;;;;;;20.65;7.53;;;;;;;;;;1924486;74;21031;-43
2021/12/09 05:52:18;;;;;;;16.27;5.72;;;;;;;;;;1924567;74;21034;-43
2021/12/09 05:54:47;;;;;;;20.75;6.60;;;;;;;;;;1924622;74;21097;-44
2021/12/09 05:57:16;;;;;;;10.93;5.78;;;;;;;;;;1924655;74;21078;-43
2021/12/09 05:59:45;;;;;;;13.93;7.40;;;;;;;;;;1924574;74;21152;-44
2021/12/09 06:02:15;;;;;;;12.40;5.75;;;;;;;;;;1924490;74;21082;-44
2021/12/09 06:04:44;;;;;;;11.63;6.03;;;;;;;;;;1924636;74;21132;-43
2021/12/09 06:07:13;;;;;;;15.30;7.58;;;;;;;;;;1924551;74;21042;-43
2021/12/09 06:09:42;;;;;;;9.83;6.20;;;;;;;;;;1924651;74;21035;-43
2021/12/09 06:12:11;;;;;;;13.68;6.55;;;;;;;;;;1924551;74;21038;-43
2021/12/09 06:14:41;;;;;;;12.85;6.40;;;;;;;;;;1924602;74;21039;-42
2021/12/09 06:17:10;;;;;;;13.43;7.17;;;;;;;;;;1924694;74;21137;-43
2021/12/09 06:19:38;;;;;;;18.60;7.53;;;;;;;;;;1924708;74;21038;-42
2021/12/09 06:22:08;;;;;;;15.40;6.47;;;;;;;;;;1924783;74;21030;-43
2021/12/09 06:24:37;;;;;;;14.38;7.20;;;;;;;;;;1921657;74;21027;-44
2021/12/09 06:27:06;;;;;;;11.68;6.05;;;;;;;;;;1905099;74;21047;-43
2021/12/09 06:29:35;;;;;;;13.50;6.42;;;;;;;;;;1905159;75;21035;-43
2021/12/09 06:32:04;;;;;;;19.82;7.25;;;;;;;;;;1905177;75;21105;-44
2021/12/09 06:34:33;;;;;;;12.15;6.83;;;;;;;;;;1905220;75;21140;-43
2021/12/09 06:37:02;;;;;;;13.13;6.95;;;;;;;;;;1905243;75;21078;-43
2021/12/09 06:39:31;;;;;;;11.38;5.50;;;;;;;;;;1905324;75;21085;-44
2021/12/09 06:42:00;;;;;;;12.53;5.72;;;;;;;;;;1905095;74;21035;-43
2021/12/09 06:44:28;;;;;;;14.55;6.75;;;;;;;;;;1905293;74;20996;-43
2021/12/09 06:46:57;;;;;;;11.20;5.05;;;;;;;;;;1905189;75;21016;-43
2021/12/09 06:49:26;;;;;;;11.15;6.20;;;;;;;;;;1905288;74;21019;-43
2021/12/09 06:51:55;;;;;;;8.30;5.47;;;;;;;;;;1905161;75;21165;-43
2021/12/09 06:54:24;;;;;;;11.95;4.50;;;;;;;;;;1905228;75;21067;-43
2021/12/09 06:56:52;;;;;;;11.48;6.70;;;;;;;;;;1905239;74;21032;-43
2021/12/09 06:59:21;;;;;;;16.80;6.78;;;;;;;;;;1905227;75;21112;-43
2021/12/09 07:01:50;;;;;;;8.33;4.78;;;;;;;;;;1905146;75;21081;-43
2021/12/09 07:04:19;;;;;;;15.38;6.78;;;;;;;;;;1905190;75;21035;-43
2021/12/09 07:06:47;;;;;;;9.73;5.22;;;;;;;;;;1905139;74;21016;-43
2021/12/09 07:09:16;;;;;;;8.48;5.33;;;;;;;;;;1905117;75;21031;-44
2021/12/09 07:11:50;;;;;;;10.18;5.45;;;;;;;;;;1905125;75;21029;-43
2021/12/09 07:14:15;;;;;;;12.13;4.70;;;;;;;;;;1904827;75;21524;-43
2021/12/09 07:16:44;;;;;;;8.73;4.28;;;;;;;;;;1905157;75;21106;-43
2021/12/09 07:19:13;;;;;;;9.70;4.67;;;;;;;;;;1905264;75;21098;-44
2021/12/09 07:21:42;;;;;;;7.83;5.55;;;;;;;;;;1905053;75;21224;-43
2021/12/09 07:24:11;;;;;;;17.30;9.45;;;;;;;;;;1905208;75;21004;-43
2021/12/09 07:26:40;;;;;;;15.55;7.97;;;;;;;;;;1905135;74;21051;-44
2021/12/09 07:29:09;;;;;;;14.15;7.72;;;;;;;;;;1905314;75;21027;-42
2021/12/09 07:31:38;;;;;;;16.55;6.92;;;;;;;;;;1905111;75;21109;-43
2021/12/09 07:34:07;;;;;;;20.32;7.95;;;;;;;;;;1905120;75;21032;-44
2021/12/09 07:36:36;;;;;;;17.10;7.60;;;;;;;;;;1905101;75;21093;-43
2021/12/09 07:39:05;;;;;;;12.73;7.40;;;;;;;;;;1905132;74;21016;-43
2021/12/09 07:41:34;;;;;;;7.15;5.65;;;;;;;;;;1905087;75;21040;-43
2021/12/09 07:44:05;;;;;;;18.23;9.73;;;;;;;;;;1905099;75;21012;-44
2021/12/09 07:46:33;;;;;;;28.52;14.58;;;;;;;;;;1905061;74;21508;-44
2021/12/09 07:49:02;;;;;;;38.80;19.90;;;;;;;;;;1905121;75;21035;-43
2021/12/09 07:51:31;;;;;;;36.13;17.37;;;;;;;;;;1905163;75;21028;-43
2021/12/09 07:54:01;;;;;;;33.38;16.93;;;;;;;;;;1905205;75;21028;-43
2021/12/09 07:56:30;;;;;;;27.27;11.18;;;;;;;;;;1905122;75;21024;-43
2021/12/09 07:58:58;;;;;;;21.70;10.43;;;;;;;;;;1904329;75;21078;-44
2021/12/09 08:01:29;;;;;;;16.20;9.43;;;;;;;;;;1905016;75;21039;-43
2021/12/09 08:03:58;;;;;;;17.35;9.35;;;;;;;;;;1905248;75;21101;-44
2021/12/09 08:06:27;;;;;;;16.17;8.33;;;;;;;;;;1905116;75;20995;-44
2021/12/09 08:08:56;;;;;;;11.33;6.97;;;;;;;;;;1905228;75;21105;-45
2021/12/09 08:11:24;;;;;;;11.50;7.33;;;;;;;;;;1905128;74;21128;-43
2021/12/09 08:13:53;;;;;;;11.70;5.03;;;;;;;;;;1905244;75;21027;-44
2021/12/09 08:16:23;;;;;;;6.17;3.98;;;;;;;;;;1905122;74;21035;-43
2021/12/09 08:18:55;;;;;;;7.20;4.85;;;;;;;;;;1905158;75;21031;-43
2021/12/09 08:21:26;;;;;;;5.80;4.28;;;;;;;;;;1905082;75;21160;-44
2021/12/09 08:23:54;;;;;;;10.08;4.30;;;;;;;;;;1905341;74;21074;-43
2021/12/09 08:26:24;;;;;;;6.62;3.47;;;;;;;;;;1905074;74;21125;-44
2021/12/09 08:28:53;;;;;;;7.45;4.10;;;;;;;;;;1905295;75;21079;-44
2021/12/09 08:31:21;;;;;;;9.75;5.28;;;;;;;;;;1905289;75;21090;-45
2021/12/09 08:33:51;;;;;;;7.42;4.33;;;;;;;;;;1905245;75;21040;-43
2021/12/09 08:36:19;;;;;;;9.38;4.90;;;;;;;;;;1905505;74;21105;-44
2021/12/09 08:38:48;;;;;;;9.93;5.05;;;;;;;;;;1905380;74;21032;-43
2021/12/09 08:41:18;;;;;;;16.27;5.97;;;;;;;;;;1905164;74;21101;-43
2021/12/09 08:43:47;;;;;;;8.73;3.55;;;;;;;;;;1905341;75;21003;-44
2021/12/09 08:46:17;;;;;;;8.13;3.42;;;;;;;;;;1905306;75;21004;-43
2021/12/09 08:48:46;;;;;;;7.45;4.33;;;;;;;;;;1905247;74;21027;-43
2021/12/09 08:51:16;;;;;;;11.38;4.70;;;;;;;;;;1905153;74;21091;-43
2021/12/09 08:53:44;;;;;;;10.70;4.70;;;;;;;;;;1905300;75;21168;-43
2021/12/09 08:56:13;;;;;;;7.15;3.70;;;;;;;;;;1905217;75;21031;-43
2021/12/09 08:58:42;;;;;;;9.88;3.72;;;;;;;;;;1905327;75;21023;-43
2021/12/09 09:01:12;;;;;;;7.72;3.67;;;;;;;;;;1905200;75;21027;-43
2021/12/09 09:03:41;;;;;;;5.80;3.12;;;;;;;;;;1905226;75;21029;-44
2021/12/09 09:06:09;;;;;;;7.95;3.77;;;;;;;;;;1905335;75;21036;-43
2021/12/09 09:08:38;;;;;;;7.10;3.62;;;;;;;;;;1905335;74;21040;-43
2021/12/09 09:11:07;;;;;;;6.65;3.20;;;;;;;;;;1905310;75;21086;-43
2021/12/09 09:13:36;;;;;;;9.03;3.15;;;;;;;;;;1905292;75;21039;-43
2021/12/09 09:16:05;;;;;;;6.17;2.58;;;;;;;;;;1905351;74;21059;-43
2021/12/09 09:18:34;;;;;;;14.47;3.47;;;;;;;;;;1905353;74;21008;-43
2021/12/09 09:21:02;;;;;;;9.10;3.02;;;;;;;;;;1905426;74;21019;-44
2021/12/09 09:23:31;;;;;;;4.67;3.17;;;;;;;;;;1905319;75;21039;-43
2021/12/09 09:26:00;;;;;;;5.78;2.10;;;;;;;;;;1905237;75;21019;-43
2021/12/09 09:28:29;;;;;;;7.05;2.55;;;;;;;;;;1904925;75;21043;-43
2021/12/09 09:30:59;;;;;;;6.87;2.87;;;;;;;;;;1876252;75;21131;-42
2021/12/09 09:33:29;;;;;;;8.45;3.67;;;;;;;;;;1879414;75;21475;-40
2021/12/09 09:35:58;;;;;;;8.30;2.85;;;;;;;;;;1886177;75;21017;-40
2021/12/09 09:38:32;;;;;;;10.80;2.95;;;;;;;;;;1888119;74;21019;-41
2021/12/09 09:41:15;;;;;;;7.05;2.55;;;;;;;;;;1888505;75;21067;-40
2021/12/09 09:46:30;;;;;;;4.92;2.52;;;;;;;;;;1886209;75;20985;-41
2021/12/09 09:49:03;;;;;;;7.03;2.52;;;;;;;;;;1889936;74;21107;-40
2021/12/09 09:51:32;;;;;;;7.45;2.85;;;;;;;;;;1887738;75;21024;-41
2021/12/09 09:54:01;;;;;;;10.53;2.87;;;;;;;;;;1890079;75;21001;-40
2021/12/09 09:56:31;;;;;;;9.08;2.80;;;;;;;;;;1888217;74;21036;-41
2021/12/09 09:59:01;;;;;;;7.17;2.80;;;;;;;;;;1886900;74;21029;-41
2021/12/09 10:01:31;;;;;;;5.50;2.35;;;;;;;;;;1887086;74;21016;-41
2021/12/09 10:04:10;;;;;;;9.13;2.85;;;;;;;;;;1890025;75;21005;-42
2021/12/09 10:06:30;;;;;;;8.28;2.42;;;;;;;;;;1880841;75;21674;-42
2021/12/09 10:08:59;;;;;;;4.25;2.35;;;;;;;;;;1872678;75;21036;-42
2021/12/09 10:11:28;;;;;;;7.60;2.33;;;;;;;;;;1872442;77;21060;-40
2021/12/09 10:13:58;;;;;;;12.45;2.35;;;;;;;;;;1872583;77;21086;-41
2021/12/09 10:16:26;;;;;;;8.75;2.80;;;;;;;;;;1887263;74;21087;-43
2021/12/09 10:18:56;;;;;;;5.47;2.40;;;;;;;;;;1889909;75;21027;-41
2021/12/09 10:21:26;;;;;;;7.12;2.33;;;;;;;;;;1888499;74;21076;-41
2021/12/09 10:23:59;;;;;;;3.45;2.37;;;;;;;;;;1886456;74;21522;-41
2021/12/09 10:26:32;;;;;;;4.22;2.22;;;;;;;;;;1889596;74;20992;-40
2021/12/09 10:29:13;;;;;;;4.25;2.25;;;;;;;;;;1908838;74;21074;-39
2021/12/09 10:31:46;;;;;;;1.87;1.57;;;;;;;;;;1908928;74;21022;-40
2021/12/09 10:34:28;;;;;;;5.72;2.05;;;;;;;;;;1909335;74;21075;-40
2021/12/09 10:36:54;;;;;;;4.05;1.62;;;;;;;;;;1905110;74;21100;-40
2021/12/09 10:39:30;;;;;;;5.05;2.42;;;;;;;;;;1908936;74;21066;-40
2021/12/09 10:42:00;;;;;;;6.67;2.62;;;;;;;;;;1908255;74;21054;-40
2021/12/09 10:44:33;;;;;;;6.67;2.40;;;;;;;;;;1908310;74;21080;-39
2021/12/09 10:47:10;;;;;;;8.50;3.17;;;;;;;;;;1904315;74;21054;-40
2021/12/09 10:49:48;;;;;;;11.65;2.85;;;;;;;;;;1913547;74;21035;-40
2021/12/09 10:52:36;;;;;;;6.62;2.25;;;;;;;;;;1908322;74;21625;-39
2021/12/09 10:54:58;;;;;;;2.80;1.72;;;;;;;;;;1905868;74;21447;-40
2021/12/09 10:57:27;;;;;;;6.35;3.37;;;;;;;;;;1906886;74;20983;-40
2021/12/09 10:59:57;;;;;;;2.92;1.67;;;;;;;;;;1905334;74;21105;-40
2021/12/09 11:02:25;;;;;;;10.45;3.75;;;;;;;;;;1906858;74;21141;-39
2021/12/09 11:05:01;;;;;;;7.87;2.45;;;;;;;;;;1906525;74;21014;-39
2021/12/09 11:07:31;;;;;;;10.25;3.02;;;;;;;;;;1909302;74;21061;-40
2021/12/09 11:10:18;;;;;;;6.60;1.90;;;;;;;;;;1909433;74;20987;-40
2021/12/09 11:12:51;;;;;;;8.48;2.50;;;;;;;;;;1909176;74;21174;-40
2021/12/09 11:15:21;;;;;;;10.55;2.90;;;;;;;;;;1907559;74;21032;-40
2021/12/09 11:17:53;;;;;;;4.17;1.90;;;;;;;;;;1905448;74;21032;-42
2021/12/09 11:20:39;;;;;;;9.73;2.25;;;;;;;;;;1906732;74;21481;-40
2021/12/09 11:23:27;;;;;;;3.95;2.08;;;;;;;;;;1909350;74;21052;-40
2021/12/09 11:25:59;;;;;;;3.87;1.72;;;;;;;;;;1909066;74;21155;-40
2021/12/09 11:28:27;;;;;;;2.77;2.05;;;;;;;;;;1901694;74;22394;-40
2021/12/09 11:31:05;;;;;;;6.45;2.77;;;;;;;;;;1897105;75;21040;-41
2021/12/09 11:33:39;;;;;;;3.02;2.27;;;;;;;;;;1896352;75;21526;-39
2021/12/09 11:36:07;;;;;;;4.55;2.90;;;;;;;;;;1896023;75;21171;-40
2021/12/09 11:38:55;;;;;;;3.72;2.35;;;;;;;;;;1898439;75;21589;-40
2021/12/09 11:41:32;;;;;;;2.75;1.65;;;;;;;;;;1899682;75;21632;-40
2021/12/09 11:44:02;;;;;;;14.83;2.30;;;;;;;;;;1899221;75;21043;-40
2021/12/09 11:46:30;;;;;;;5.62;2.30;;;;;;;;;;1899245;75;21015;-43
2021/12/09 11:48:59;;;;;;;3.47;1.80;;;;;;;;;;1897894;75;21032;-42
2021/12/09 11:51:28;;;;;;;5.80;3.05;;;;;;;;;;1895845;75;21103;-42
2021/12/09 11:53:58;;;;;;;7.75;2.80;;;;;;;;;;1898512;75;20999;-42
2021/12/09 11:56:45;;;;;;;6.90;3.15;;;;;;;;;;1899903;75;21019;-42
2021/12/09 12:13:37;;;;;;;8.85;3.47;;;;;;;;;;1899618;75;21046;-42
2021/12/09 12:16:23;;;;;;;11.33;3.87;;;;;;;;;;1900592;75;21096;-42
2021/12/09 12:32:14;;;;;;;7.22;3.22;;;;;;;;;;1905054;74;20375;-42
2021/12/09 12:35:06;;;;;;;3.98;2.30;;;;;;;;;;1901624;74;21764;-43
2021/12/09 12:40:27;;;;;;;9.25;3.35;;;;;;;;;;1905075;75;21101;-40
2021/12/09 12:43:08;;;;;;;10.95;2.52;;;;;;;;;;1904372;75;21082;-40
2021/12/09 12:45:47;;;;;;;9.93;2.77;;;;;;;;;;1903445;74;21675;-40
2021/12/09 12:51:18;;;;;;;9.43;2.62;;;;;;;;;;1904831;75;21039;-40
2021/12/09 12:53:45;;;;;;;6.28;2.83;;;;;;;;;;1905067;74;21528;-43
2021/12/09 12:56:24;;;;;;;7.40;3.67;;;;;;;;;;1905190;74;21544;-42
2021/12/09 12:59:14;;;;;;;7.58;2.33;;;;;;;;;;1905056;75;21007;-42
2021/12/09 13:01:51;;;;;;;3.98;2.40;;;;;;;;;;1905094;74;21501;-41
2021/12/09 13:04:44;;;;;;;4.22;2.00;;;;;;;;;;1902998;75;21505;-41
2021/12/09 13:10:19;;;;;;;7.47;2.83;;;;;;;;;;1905043;75;21039;-41
2021/12/09 13:12:55;;;;;;;21.07;11.08;;;;;;;;;;1904870;74;21101;-41
2021/12/09 13:15:25;;;;;;;9.00;4.72;;;;;;;;;;1904340;74;21469;-41
2021/12/09 13:18:00;;;;;;;35.50;22.67;;;;;;;;;;1904525;74;21071;-41
2021/12/09 13:20:30;;;;;;;19.12;10.55;;;;;;;;;;1903843;74;21121;-41
2021/12/09 13:23:14;;;;;;;10.58;4.17;;;;;;;;;;1904780;74;21027;-41
2021/12/09 13:25:43;;;;;;;9.55;3.70;;;;;;;;;;1905193;75;21017;-42
2021/12/09 13:28:13;;;;;;;9.15;2.62;;;;;;;;;;1903305;74;21051;-42
2021/12/09 13:31:04;;;;;;;7.08;3.00;;;;;;;;;;1905153;74;21090;-41
2021/12/09 13:49:52;;;;;;;9.15;3.52;;;;;;;;;;1905198;75;21465;-41
2021/12/09 13:55:18;;;;;;;10.28;4.05;;;;;;;;;;1905184;75;21043;-41
2021/12/09 13:57:48;;;;;;;8.90;3.33;;;;;;;;;;1905196;75;21473;-41
2021/12/09 14:00:27;;;;;;;12.50;3.90;;;;;;;;;;1905157;75;21020;-41
2021/12/09 14:02:57;;;;;;;79.72;40.65;;;;;;;;;;1905207;75;21055;-41
2021/12/09 14:05:26;;;;;;;16.60;7.65;;;;;;;;;;1905170;75;21124;-41
2021/12/09 14:08:02;;;;;;;30.68;9.23;;;;;;;;;;1905244;74;21059;-41
2021/12/09 14:10:32;;;;;;;15.60;7.50;;;;;;;;;;1905058;74;21478;-41
2021/12/09 14:13:04;;;;;;;33.85;8.68;;;;;;;;;;1904987;75;21051;-41
2021/12/09 14:15:38;;;;;;;24.77;7.58;;;;;;;;;;1905102;74;21562;-41
2021/12/09 14:18:09;;;;;;;10.00;5.55;;;;;;;;;;1905147;74;21093;-42
2021/12/09 14:20:36;;;;;;;12.40;5.10;;;;;;;;;;1905163;74;21630;-41
2021/12/09 14:23:05;;;;;;;14.78;6.25;;;;;;;;;;1905366;75;21108;-42
2021/12/09 14:25:35;;;;;;;10.48;4.35;;;;;;;;;;1905186;75;21012;-40
2021/12/09 14:28:05;;;;;;;12.30;4.55;;;;;;;;;;1905282;74;21470;-41
2021/12/09 14:30:34;;;;;;;7.05;3.55;;;;;;;;;;1904940;74;21561;-41
2021/12/09 14:33:03;;;;;;;8.93;3.70;;;;;;;;;;1905274;75;21080;-41
2021/12/09 14:35:34;;;;;;;7.53;3.27;;;;;;;;;;1905126;75;21028;-42
2021/12/09 14:38:03;;;;;;;8.08;3.98;;;;;;;;;;1904727;74;21109;-41
2021/12/09 14:40:38;;;;;;;9.13;3.42;;;;;;;;;;1905229;75;21023;-41
2021/12/09 14:43:09;;;;;;;13.72;5.62;;;;;;;;;;1905183;74;21059;-41
2021/12/09 14:45:38;;;;;;;17.10;5.65;;;;;;;;;;1905378;75;21079;-41
2021/12/09 14:48:08;;;;;;;10.23;4.70;;;;;;;;;;1905322;75;21559;-41
2021/12/09 14:50:38;;;;;;;20.57;7.12;;;;;;;;;;1905250;75;21535;-41
2021/12/09 14:53:08;;;;;;;31.45;6.70;;;;;;;;;;1905156;75;21101;-41
2021/12/09 14:55:38;;;;;;;20.97;6.42;;;;;;;;;;1905156;74;21043;-41
2021/12/09 14:58:09;;;;;;;13.68;5.80;;;;;;;;;;1904554;74;21016;-41
2021/12/09 15:00:54;;;;;;;24.50;7.60;;;;;;;;;;1905342;74;21098;-42
2021/12/09 15:03:42;;;;;;;15.10;5.12;;;;;;;;;;1905068;74;21105;-42
2021/12/09 15:06:05;;;;;;;11.53;4.90;;;;;;;;;;1902884;74;21493;-41
2021/12/09 15:08:35;;;;;;;14.95;5.17;;;;;;;;;;1905087;75;21085;-42
2021/12/09 15:11:05;;;;;;;18.40;5.15;;;;;;;;;;1904367;74;21078;-42
2021/12/09 15:13:44;;;;;;;24.32;5.87;;;;;;;;;;1904902;75;21043;-42
2021/12/09 15:16:14;;;;;;;29.60;7.50;;;;;;;;;;1904396;75;21020;-42
2021/12/09 15:18:43;;;;;;;21.23;7.70;;;;;;;;;;1905123;74;21111;-41
2021/12/09 15:21:19;;;;;;;36.42;14.13;;;;;;;;;;1905152;75;21032;-42
2021/12/09 15:23:59;;;;;;;28.98;9.25;;;;;;;;;;1905263;75;21055;-42
2021/12/09 15:26:30;;;;;;;15.75;7.15;;;;;;;;;;1905278;75;21043;-42
2021/12/09 15:29:02;;;;;;;22.10;7.65;;;;;;;;;;1905217;74;21122;-41
2021/12/09 15:31:31;;;;;;;23.25;8.98;;;;;;;;;;1904401;74;21102;-42
2021/12/09 15:34:08;;;;;;;20.92;7.87;;;;;;;;;;1905213;74;20991;-42
2021/12/09 15:36:38;;;;;;;23.42;6.87;;;;;;;;;;1905102;75;21011;-41
2021/12/09 15:39:20;;;;;;;25.10;7.75;;;;;;;;;;1905062;75;21090;-42
2021/12/09 15:41:45;;;;;;;24.92;8.35;;;;;;;;;;1904444;74;21566;-42
2021/12/09 15:44:15;;;;;;;17.15;8.40;;;;;;;;;;1905204;75;20996;-41
2021/12/09 15:46:48;;;;;;;14.35;7.22;;;;;;;;;;1904468;74;21019;-42
2021/12/09 15:49:17;;;;;;;9.75;6.47;;;;;;;;;;1905240;75;21091;-42
2021/12/09 15:51:47;;;;;;;13.08;6.65;;;;;;;;;;1905270;75;21144;-42
2021/12/09 15:54:18;;;;;;;10.38;6.97;;;;;;;;;;1905123;75;21590;-42